Pike, New York
Current Conditions -  °F | °C
As of 12:19 PM on Thursday 23 Oct 2014 (Local Time) from KDSV Reporting Station
Overcast Overcast  
Wind Chill: 55°   Ceiling: 5000
Heat Index: 55°   Visibility: 10mi
Dew Point: 41°   Wind: 17mph
Humidity: 59%   Direction: 330°NNW
Pressure: 30.05"   Gusts: NA
Location:  42.56°N, 78.15°W
Report Text: KDSV 231619Z AUTO 33015KT 10SM SCT029 OVC050 13/05 A3005 RMK AO2 T01280050
Loading
Personal Weather Stations






























Interactive Weather Map New forecast layout! Learn more

10-Day Weather Forecast

Advertisements
Track Severe Weather on mobile